<?xml version="1.0" encoding="UTF-8" standalone="no" ?>
<gpx xmlns="http://www.topografix.com/GPX/1/1" xmlns:xsi="http://www.w3.org/2001/XMLSchema-instance" xsi:schemaLocation="http://www.topografix.com/GPX/1/1 http://www.topografix.com/GPX/1/1/gpx.xsd" version="1.1" creator="VisuGPX - https://www.visugpx.com">
  <metadata>
    <name>Sault - Le plateau d'Albion</name>
    <desc><![CDATA[Balade sur le plateau d'Albion au départ de Sault]]></desc>
  </metadata>
  <trk>
    <name><![CDATA[Sault - Le plateau d'Albion]]></name>
    <trkseg>
      <trkpt lat="44.09278" lon="5.4091">
        <ele>766.9</ele>
        <time>2016-03-27T12:07:38Z</time>
      </trkpt>
      <trkpt lat="44.09221" lon="5.40848">
        <ele>759.3</ele>
        <time>2016-03-27T12:08:18Z</time>
      </trkpt>
      <trkpt lat="44.09194" lon="5.40927">
        <ele>760.6</ele>
        <time>2016-03-27T12:08:58Z</time>
      </trkpt>
      <trkpt lat="44.09119" lon="5.40973">
        <ele>760.1</ele>
        <time>2016-03-27T12:09:38Z</time>
      </trkpt>
      <trkpt lat="44.09101" lon="5.40897">
        <ele>754.5</ele>
        <time>2016-03-27T12:10:18Z</time>
      </trkpt>
      <trkpt lat="44.09099" lon="5.40944">
        <ele>756.5</ele>
        <time>2016-03-27T12:10:58Z</time>
      </trkpt>
      <trkpt lat="44.09075" lon="5.4093">
        <ele>752.5</ele>
        <time>2016-03-27T12:11:38Z</time>
      </trkpt>
      <trkpt lat="44.09049" lon="5.40907">
        <ele>747.7</ele>
        <time>2016-03-27T12:12:18Z</time>
      </trkpt>
      <trkpt lat="44.08974" lon="5.40934">
        <ele>723.5</ele>
        <time>2016-03-27T12:12:58Z</time>
      </trkpt>
      <trkpt lat="44.08879" lon="5.4096">
        <ele>704.3</ele>
        <time>2016-03-27T12:13:38Z</time>
      </trkpt>
      <trkpt lat="44.08796" lon="5.40949">
        <ele>701.9</ele>
        <time>2016-03-27T12:14:18Z</time>
      </trkpt>
      <trkpt lat="44.08739" lon="5.41046">
        <ele>704</ele>
        <time>2016-03-27T12:14:58Z</time>
      </trkpt>
      <trkpt lat="44.08651" lon="5.41132">
        <ele>727.7</ele>
        <time>2016-03-27T12:15:38Z</time>
      </trkpt>
      <trkpt lat="44.08591" lon="5.41328">
        <ele>754.5</ele>
        <time>2016-03-27T12:16:18Z</time>
      </trkpt>
      <trkpt lat="44.08562" lon="5.41395">
        <ele>763.6</ele>
        <time>2016-03-27T12:16:58Z</time>
      </trkpt>
      <trkpt lat="44.08476" lon="5.41434">
        <ele>773</ele>
        <time>2016-03-27T12:17:38Z</time>
      </trkpt>
      <trkpt lat="44.08404" lon="5.41587">
        <ele>779.2</ele>
        <time>2016-03-27T12:18:18Z</time>
      </trkpt>
      <trkpt lat="44.08307" lon="5.41687">
        <ele>784.9</ele>
        <time>2016-03-27T12:18:58Z</time>
      </trkpt>
      <trkpt lat="44.08169" lon="5.41792">
        <ele>784.2</ele>
        <time>2016-03-27T12:19:38Z</time>
      </trkpt>
      <trkpt lat="44.08049" lon="5.41892">
        <ele>780.3</ele>
        <time>2016-03-27T12:20:18Z</time>
      </trkpt>
      <trkpt lat="44.07972" lon="5.42056">
        <ele>784.4</ele>
        <time>2016-03-27T12:20:58Z</time>
      </trkpt>
      <trkpt lat="44.0792" lon="5.42153">
        <ele>790</ele>
        <time>2016-03-27T12:21:38Z</time>
      </trkpt>
      <trkpt lat="44.07849" lon="5.42196">
        <ele>796.1</ele>
        <time>2016-03-27T12:22:18Z</time>
      </trkpt>
      <trkpt lat="44.0781" lon="5.42219">
        <ele>799.4</ele>
        <time>2016-03-27T12:22:58Z</time>
      </trkpt>
      <trkpt lat="44.07766" lon="5.42363">
        <ele>793.3</ele>
        <time>2016-03-27T12:23:38Z</time>
      </trkpt>
      <trkpt lat="44.07735" lon="5.42511">
        <ele>799.5</ele>
        <time>2016-03-27T12:24:18Z</time>
      </trkpt>
      <trkpt lat="44.0768" lon="5.4268">
        <ele>810.8</ele>
        <time>2016-03-27T12:24:58Z</time>
      </trkpt>
      <trkpt lat="44.0759" lon="5.42762">
        <ele>816.2</ele>
        <time>2016-03-27T12:25:38Z</time>
      </trkpt>
      <trkpt lat="44.07565" lon="5.42855">
        <ele>818.8</ele>
        <time>2016-03-27T12:26:18Z</time>
      </trkpt>
      <trkpt lat="44.07491" lon="5.4295">
        <ele>821</ele>
        <time>2016-03-27T12:26:58Z</time>
      </trkpt>
      <trkpt lat="44.07384" lon="5.43122">
        <ele>817</ele>
        <time>2016-03-27T12:27:38Z</time>
      </trkpt>
      <trkpt lat="44.07255" lon="5.43259">
        <ele>823.6</ele>
        <time>2016-03-27T12:28:18Z</time>
      </trkpt>
      <trkpt lat="44.07086" lon="5.43331">
        <ele>821.2</ele>
        <time>2016-03-27T12:28:58Z</time>
      </trkpt>
      <trkpt lat="44.06899" lon="5.43427">
        <ele>820</ele>
        <time>2016-03-27T12:29:38Z</time>
      </trkpt>
      <trkpt lat="44.06776" lon="5.43651">
        <ele>833.3</ele>
        <time>2016-03-27T12:30:18Z</time>
      </trkpt>
      <trkpt lat="44.06643" lon="5.43893">
        <ele>847</ele>
        <time>2016-03-27T12:30:58Z</time>
      </trkpt>
      <trkpt lat="44.06538" lon="5.44075">
        <ele>848.3</ele>
        <time>2016-03-27T12:31:38Z</time>
      </trkpt>
      <trkpt lat="44.06435" lon="5.4425">
        <ele>845</ele>
        <time>2016-03-27T12:32:18Z</time>
      </trkpt>
      <trkpt lat="44.06326" lon="5.44437">
        <ele>849.5</ele>
        <time>2016-03-27T12:32:58Z</time>
      </trkpt>
      <trkpt lat="44.06268" lon="5.44559">
        <ele>850.8</ele>
        <time>2016-03-27T12:33:38Z</time>
      </trkpt>
      <trkpt lat="44.06259" lon="5.44721">
        <ele>840</ele>
        <time>2016-03-27T12:34:18Z</time>
      </trkpt>
      <trkpt lat="44.0627" lon="5.44965">
        <ele>843.8</ele>
        <time>2016-03-27T12:34:58Z</time>
      </trkpt>
      <trkpt lat="44.0622" lon="5.4513">
        <ele>838.4</ele>
        <time>2016-03-27T12:35:38Z</time>
      </trkpt>
      <trkpt lat="44.06185" lon="5.45284">
        <ele>836.9</ele>
        <time>2016-03-27T12:36:18Z</time>
      </trkpt>
      <trkpt lat="44.06185" lon="5.45284">
        <ele>836.9</ele>
        <time>2016-03-27T12:36:58Z</time>
      </trkpt>
      <trkpt lat="44.06225" lon="5.4543">
        <ele>834.3</ele>
        <time>2016-03-27T12:37:38Z</time>
      </trkpt>
      <trkpt lat="44.06292" lon="5.45602">
        <ele>842.9</ele>
        <time>2016-03-27T12:38:18Z</time>
      </trkpt>
      <trkpt lat="44.06501" lon="5.45551">
        <ele>822.5</ele>
        <time>2016-03-27T12:38:58Z</time>
      </trkpt>
      <trkpt lat="44.06543" lon="5.45485">
        <ele>831.3</ele>
        <time>2016-03-27T12:39:38Z</time>
      </trkpt>
      <trkpt lat="44.06673" lon="5.45505">
        <ele>824.1</ele>
        <time>2016-03-27T12:40:18Z</time>
      </trkpt>
      <trkpt lat="44.068" lon="5.45487">
        <ele>819.4</ele>
        <time>2016-03-27T12:40:58Z</time>
      </trkpt>
      <trkpt lat="44.06997" lon="5.45516">
        <ele>808.3</ele>
        <time>2016-03-27T12:41:38Z</time>
      </trkpt>
      <trkpt lat="44.07031" lon="5.45431">
        <ele>807.8</ele>
        <time>2016-03-27T12:42:18Z</time>
      </trkpt>
      <trkpt lat="44.07109" lon="5.45366">
        <ele>814.9</ele>
        <time>2016-03-27T12:42:58Z</time>
      </trkpt>
      <trkpt lat="44.07134" lon="5.4528">
        <ele>814.6</ele>
        <time>2016-03-27T12:43:38Z</time>
      </trkpt>
      <trkpt lat="44.07402" lon="5.45014">
        <ele>798.4</ele>
        <time>2016-03-27T12:44:18Z</time>
      </trkpt>
      <trkpt lat="44.07558" lon="5.44923">
        <ele>792</ele>
        <time>2016-03-27T12:44:58Z</time>
      </trkpt>
      <trkpt lat="44.07678" lon="5.44823">
        <ele>782.2</ele>
        <time>2016-03-27T12:45:38Z</time>
      </trkpt>
      <trkpt lat="44.07766" lon="5.44735">
        <ele>769.4</ele>
        <time>2016-03-27T12:46:18Z</time>
      </trkpt>
      <trkpt lat="44.07824" lon="5.44685">
        <ele>767.5</ele>
        <time>2016-03-27T12:46:58Z</time>
      </trkpt>
      <trkpt lat="44.07898" lon="5.4468">
        <ele>765</ele>
        <time>2016-03-27T12:47:38Z</time>
      </trkpt>
      <trkpt lat="44.07947" lon="5.44682">
        <ele>764.2</ele>
        <time>2016-03-27T12:48:18Z</time>
      </trkpt>
      <trkpt lat="44.08021" lon="5.44611">
        <ele>758.6</ele>
        <time>2016-03-27T12:48:58Z</time>
      </trkpt>
      <trkpt lat="44.08122" lon="5.44555">
        <ele>766.8</ele>
        <time>2016-03-27T12:49:38Z</time>
      </trkpt>
      <trkpt lat="44.08232" lon="5.44498">
        <ele>768.4</ele>
        <time>2016-03-27T12:50:18Z</time>
      </trkpt>
      <trkpt lat="44.08265" lon="5.44509">
        <ele>767.1</ele>
        <time>2016-03-27T12:50:58Z</time>
      </trkpt>
      <trkpt lat="44.08312" lon="5.44449">
        <ele>769.1</ele>
        <time>2016-03-27T12:51:38Z</time>
      </trkpt>
      <trkpt lat="44.08448" lon="5.44479">
        <ele>777.6</ele>
        <time>2016-03-27T12:52:18Z</time>
      </trkpt>
      <trkpt lat="44.08557" lon="5.44454">
        <ele>775.4</ele>
        <time>2016-03-27T12:52:58Z</time>
      </trkpt>
      <trkpt lat="44.08667" lon="5.4436">
        <ele>765.6</ele>
        <time>2016-03-27T12:53:38Z</time>
      </trkpt>
      <trkpt lat="44.08751" lon="5.44271">
        <ele>760.3</ele>
        <time>2016-03-27T12:54:18Z</time>
      </trkpt>
      <trkpt lat="44.08879" lon="5.44359">
        <ele>761.6</ele>
        <time>2016-03-27T12:54:58Z</time>
      </trkpt>
      <trkpt lat="44.08979" lon="5.44458">
        <ele>768.9</ele>
        <time>2016-03-27T12:55:38Z</time>
      </trkpt>
      <trkpt lat="44.09038" lon="5.44286">
        <ele>789</ele>
        <time>2016-03-27T12:56:18Z</time>
      </trkpt>
      <trkpt lat="44.09068" lon="5.44188">
        <ele>794.9</ele>
        <time>2016-03-27T12:56:58Z</time>
      </trkpt>
      <trkpt lat="44.09122" lon="5.44048">
        <ele>801.4</ele>
        <time>2016-03-27T12:57:38Z</time>
      </trkpt>
      <trkpt lat="44.09219" lon="5.43953">
        <ele>795.2</ele>
        <time>2016-03-27T12:58:18Z</time>
      </trkpt>
      <trkpt lat="44.09303" lon="5.43845">
        <ele>789.6</ele>
        <time>2016-03-27T12:58:58Z</time>
      </trkpt>
      <trkpt lat="44.0939" lon="5.43775">
        <ele>789.4</ele>
        <time>2016-03-27T12:59:38Z</time>
      </trkpt>
      <trkpt lat="44.09409" lon="5.43601">
        <ele>792.6</ele>
        <time>2016-03-27T13:00:18Z</time>
      </trkpt>
      <trkpt lat="44.09465" lon="5.4338">
        <ele>787.9</ele>
        <time>2016-03-27T13:00:58Z</time>
      </trkpt>
      <trkpt lat="44.09491" lon="5.43225">
        <ele>782.2</ele>
        <time>2016-03-27T13:01:38Z</time>
      </trkpt>
      <trkpt lat="44.09515" lon="5.43033">
        <ele>768.7</ele>
        <time>2016-03-27T13:02:18Z</time>
      </trkpt>
      <trkpt lat="44.09657" lon="5.42935">
        <ele>752.2</ele>
        <time>2016-03-27T13:02:58Z</time>
      </trkpt>
      <trkpt lat="44.09674" lon="5.42817">
        <ele>755.3</ele>
        <time>2016-03-27T13:03:38Z</time>
      </trkpt>
      <trkpt lat="44.0966" lon="5.42672">
        <ele>771</ele>
        <time>2016-03-27T13:04:18Z</time>
      </trkpt>
      <trkpt lat="44.09708" lon="5.42575">
        <ele>775.4</ele>
        <time>2016-03-27T13:04:58Z</time>
      </trkpt>
      <trkpt lat="44.09649" lon="5.42578">
        <ele>781.5</ele>
        <time>2016-03-27T13:05:38Z</time>
      </trkpt>
      <trkpt lat="44.09644" lon="5.42434">
        <ele>785.5</ele>
        <time>2016-03-27T13:06:18Z</time>
      </trkpt>
      <trkpt lat="44.0968" lon="5.42305">
        <ele>784.8</ele>
        <time>2016-03-27T13:06:58Z</time>
      </trkpt>
      <trkpt lat="44.09612" lon="5.42158">
        <ele>792.3</ele>
        <time>2016-03-27T13:07:38Z</time>
      </trkpt>
      <trkpt lat="44.09553" lon="5.42005">
        <ele>794.1</ele>
        <time>2016-03-27T13:08:18Z</time>
      </trkpt>
      <trkpt lat="44.0953" lon="5.41848">
        <ele>796</ele>
        <time>2016-03-27T13:08:58Z</time>
      </trkpt>
      <trkpt lat="44.09485" lon="5.4172">
        <ele>796</ele>
        <time>2016-03-27T13:09:38Z</time>
      </trkpt>
      <trkpt lat="44.09479" lon="5.41614">
        <ele>796</ele>
        <time>2016-03-27T13:10:18Z</time>
      </trkpt>
      <trkpt lat="44.09445" lon="5.41525">
        <ele>795.3</ele>
        <time>2016-03-27T13:10:58Z</time>
      </trkpt>
      <trkpt lat="44.09448" lon="5.41419">
        <ele>794.2</ele>
        <time>2016-03-27T13:11:38Z</time>
      </trkpt>
      <trkpt lat="44.09393" lon="5.41285">
        <ele>791.5</ele>
        <time>2016-03-27T13:12:18Z</time>
      </trkpt>
      <trkpt lat="44.09336" lon="5.41232">
        <ele>783.1</ele>
        <time>2016-03-27T13:12:58Z</time>
      </trkpt>
      <trkpt lat="44.09284" lon="5.41185">
        <ele>776.5</ele>
        <time>2016-03-27T13:13:38Z</time>
      </trkpt>
      <trkpt lat="44.0929" lon="5.41117">
        <ele>774.7</ele>
        <time>2016-03-27T13:14:18Z</time>
      </trkpt>
      <trkpt lat="44.09273" lon="5.41072">
        <ele>772.2</ele>
        <time>2016-03-27T13:14:58Z</time>
      </trkpt>
      <trkpt lat="44.09243" lon="5.41033">
        <ele>769.2</ele>
        <time>2016-03-27T13:15:38Z</time>
      </trkpt>
      <trkpt lat="44.09219" lon="5.41">
        <ele>766.2</ele>
        <time>2016-03-27T13:16:18Z</time>
      </trkpt>
      <trkpt lat="44.09243" lon="5.40961">
        <ele>766.7</ele>
        <time>2016-03-27T13:16:58Z</time>
      </trkpt>
      <trkpt lat="44.09219" lon="5.40944">
        <ele>764</ele>
        <time>2016-03-27T13:17:38Z</time>
      </trkpt>
      <trkpt lat="44.09224" lon="5.40919">
        <ele>763.4</ele>
        <time>2016-03-27T13:18:18Z</time>
      </trkpt>
      <trkpt lat="44.0926" lon="5.40906">
        <ele>765.5</ele>
        <time>2016-03-27T13:18:58Z</time>
      </trkpt>
      <trkpt lat="44.0926" lon="5.40906">
        <ele>765.5</ele>
        <time>2016-03-27T13:19:38Z</time>
      </trkpt>
    </trkseg>
  </trk>
</gpx>